Time;durP1;ratioP1;P1;durP2;ratioP2;P2;SDS_P1;SDS_P2;PMS_P1;PMS_P2;Temp;Humidity;BMP_temperature;BMP_pressure;BME280_temperature;BME280_humidity;BME280_pressure;Samples;Min_cycle;Max_cycle;Signal;HPM_P1;HPM_P2
2023/04/04 07:25:02;;;;;;;22.85;17.30;;;;;;;10.76;100.00;98767.78;2377618;28;22147;-28
2023/04/04 07:27:27;;;;;;;23.10;14.07;;;;;;;10.66;100.00;98771.13;5066416;28;20040;-28
2023/04/04 07:29:53;;;;;;;25.02;17.10;;;;;;;10.72;100.00;98778.13;5066353;28;20052;-28
2023/04/04 07:32:18;;;;;;;30.05;23.23;;;;;;;10.73;100.00;98779.75;5066792;28;20025;-28
2023/04/04 07:34:44;;;;;;;24.08;16.13;;;;;;;10.63;100.00;98774.31;5066700;28;20032;-28
2023/04/04 07:37:09;;;;;;;25.15;17.73;;;;;;;10.67;100.00;98775.44;5066504;28;20947;-28
2023/04/04 07:39:35;;;;;;;26.20;17.88;;;;;;;10.57;100.00;98772.66;5066492;28;20017;-28
2023/04/04 07:42:01;;;;;;;35.00;23.88;;;;;;;10.62;100.00;98788.69;5066380;28;20021;-28
2023/04/04 07:44:26;;;;;;;54.28;39.25;;;;;;;10.78;100.00;98776.31;5066514;28;20044;-27
2023/04/04 07:46:52;;;;;;;36.80;27.13;;;;;;;10.37;100.00;98774.03;5066360;28;20549;-29
2023/04/04 07:49:17;;;;;;;25.65;17.50;;;;;;;10.61;100.00;98773.75;5066238;28;20029;-29
2023/04/04 07:51:43;;;;;;;37.88;30.08;;;;;;;10.59;100.00;98782.00;5065572;28;20475;-30
2023/04/04 07:54:09;;;;;;;124.97;90.25;;;;;;;10.56;100.00;98773.69;5066300;28;20036;-29
2023/04/04 07:56:34;;;;;;;25.30;18.52;;;;;;;10.76;100.00;98773.91;5066475;28;20025;-29
2023/04/04 07:59:00;;;;;;;39.50;33.88;;;;;;;10.88;100.00;98770.28;5066165;28;20085;-27
2023/04/04 08:01:25;;;;;;;33.88;30.23;;;;;;;11.00;100.00;98774.41;5065963;28;20031;-28
2023/04/04 08:03:52;;;;;;;34.03;30.42;;;;;;;11.18;100.00;98775.09;5066235;28;20020;-28
2023/04/04 08:06:18;;;;;;;27.77;24.67;;;;;;;11.34;100.00;98779.50;5066343;28;20030;-28
2023/04/04 08:08:45;;;;;;;19.90;14.85;;;;;;;11.13;100.00;98778.50;5066320;28;20052;-28
2023/04/04 08:11:11;;;;;;;17.70;12.85;;;;;;;11.23;100.00;98786.59;5066200;28;20111;-28
2023/04/04 08:13:36;;;;;;;21.00;16.50;;;;;;;11.36;100.00;98787.22;5065693;28;20495;-28
2023/04/04 08:16:02;;;;;;;26.50;21.77;;;;;;;11.33;100.00;98788.56;5066220;28;20029;-29
2023/04/04 08:18:27;;;;;;;28.20;24.92;;;;;;;11.10;100.00;98791.56;5070016;28;20021;-29
2023/04/04 08:20:53;;;;;;;22.45;18.95;;;;;;;11.17;100.00;98789.50;5070828;28;20090;-28
2023/04/04 08:23:18;;;;;;;26.38;23.50;;;;;;;11.12;100.00;98794.78;5069987;28;20082;-28
2023/04/04 08:25:46;;;;;;;20.88;14.55;;;;;;;11.10;100.00;98799.59;5069805;28;20135;-28
2023/04/04 08:28:12;;;;;;;20.55;14.90;;;;;;;11.26;100.00;98796.78;5070134;28;20035;-29
2023/04/04 08:30:38;;;;;;;17.92;12.05;;;;;;;11.15;100.00;98803.06;5069801;28;20117;-28
2023/04/04 08:33:03;;;;;;;20.50;14.70;;;;;;;10.97;100.00;98795.44;5070069;28;20778;-28
2023/04/04 08:35:29;;;;;;;23.30;17.63;;;;;;;11.19;100.00;98806.84;5069713;28;20081;-28
2023/04/04 08:37:56;;;;;;;18.02;12.77;;;;;;;11.34;100.00;98800.03;5069915;28;20020;-28
2023/04/04 08:40:22;;;;;;;35.72;21.30;;;;;;;11.36;100.00;98797.91;5069676;28;20024;-28
2023/04/04 08:42:50;;;;;;;19.75;13.50;;;;;;;11.39;100.00;98781.41;5069826;28;20024;-28
2023/04/04 08:45:21;;;;;;;23.50;16.05;;;;;;;11.39;100.00;98784.06;5069447;28;20047;-28
2023/04/04 08:47:49;;;;;;;20.77;13.60;;;;;;;11.64;100.00;98794.91;5069660;28;20036;-28
2023/04/04 08:50:15;;;;;;;23.92;16.63;;;;;;;11.78;100.00;98791.81;5069533;28;20055;-28
2023/04/04 08:52:42;;;;;;;20.65;15.25;;;;;;;11.62;100.00;98791.69;5069969;28;20036;-28
2023/04/04 08:55:08;;;;;;;16.65;12.65;;;;;;;12.01;100.00;98788.78;5069276;28;20025;-28
2023/04/04 08:57:34;;;;;;;40.67;22.38;;;;;;;12.06;100.00;98802.16;5069477;28;20093;-28
2023/04/04 09:00:04;;;;;;;27.70;18.20;;;;;;;12.19;100.00;98800.06;5069236;28;20028;-28
2023/04/04 09:02:30;;;;;;;23.67;15.70;;;;;;;12.29;100.00;98794.78;5069427;28;20028;-28
2023/04/04 09:04:57;;;;;;;20.73;15.95;;;;;;;12.39;100.00;98784.13;5069419;28;20024;-28
2023/04/04 09:07:24;;;;;;;19.95;15.48;;;;;;;12.36;100.00;98784.66;5069150;28;20033;-28
2023/04/04 09:09:52;;;;;;;15.68;12.55;;;;;;;12.24;100.00;98757.34;5069205;28;20040;-28
2023/04/04 09:12:17;;;;;;;;;;;;;;;12.86;100.00;98782.38;5069608;28;20190;-28
2023/04/04 09:14:45;;;;;;;15.73;11.05;;;;;;;12.82;100.00;98778.63;5068918;28;19987;-28
2023/04/04 09:17:10;;;;;;;23.88;16.42;;;;;;;13.02;100.00;98786.69;5069453;28;20032;-24
2023/04/04 09:19:36;;;;;;;19.70;13.27;;;;;;;13.12;100.00;98796.59;5068825;28;20020;-25
2023/04/04 09:22:05;;;;;;;22.73;17.23;;;;;;;13.22;100.00;98777.88;5068984;28;20035;-26
2023/04/04 09:24:39;;;;;;;21.30;15.95;;;;;;;13.59;100.00;98795.56;5068629;28;20032;-26
2023/04/04 09:27:07;;;;;;;19.35;13.95;;;;;;;13.48;100.00;98793.94;5068231;28;20048;-26
2023/04/04 09:29:33;;;;;;;39.30;31.63;;;;;;;13.84;100.00;98783.19;5068666;28;20111;-25
2023/04/04 09:31:59;;;;;;;24.17;16.45;;;;;;;14.09;100.00;98797.59;5068482;28;20115;-26
2023/04/04 09:34:27;;;;;;;29.23;17.70;;;;;;;14.05;100.00;98797.31;5068780;28;20103;-26
2023/04/04 09:36:52;;;;;;;27.65;16.85;;;;;;;14.14;100.00;98795.69;5068572;28;20032;-25
2023/04/04 09:39:19;;;;;;;20.92;13.98;;;;;;;14.06;100.00;98796.25;5068799;28;20420;-26
2023/04/04 09:41:45;;;;;;;26.27;19.60;;;;;;;14.05;100.00;98795.44;5068355;28;20033;-26
2023/04/04 09:44:12;;;;;;;33.50;18.92;;;;;;;14.14;100.00;98802.91;5068562;28;20033;-26
2023/04/04 09:46:38;;;;;;;35.65;22.05;;;;;;;14.40;100.00;98791.03;5068532;28;20115;-26
2023/04/04 09:49:04;;;;;;;28.38;18.20;;;;;;;14.60;100.00;98794.72;5068566;28;20033;-27
2023/04/04 09:51:36;;;;;;;26.02;15.30;;;;;;;14.19;100.00;98787.63;5068589;28;20031;-25
2023/04/04 09:54:02;;;;;;;24.77;14.88;;;;;;;14.40;100.00;98798.28;5068385;28;20028;-26
2023/04/04 09:56:27;;;;;;;20.70;13.23;;;;;;;14.47;100.00;98802.28;5068173;28;20097;-26
2023/04/04 09:58:53;;;;;;;25.77;18.38;;;;;;;14.86;100.00;98787.34;5068181;28;20028;-26
2023/04/04 10:01:19;;;;;;;25.73;17.35;;;;;;;15.14;100.00;98780.44;5068452;28;20500;-25
2023/04/04 10:03:54;;;;;;;22.33;14.45;;;;;;;15.34;100.00;98773.28;5068029;28;20024;-26
2023/04/04 10:06:21;;;;;;;27.77;16.38;;;;;;;15.57;100.00;98780.63;5068278;28;20562;-25
2023/04/04 10:08:47;;;;;;;29.50;18.20;;;;;;;15.80;100.00;98775.59;5068211;28;20028;-26
2023/04/04 10:11:26;;;;;;;43.70;25.95;;;;;;;15.58;100.00;98779.50;5068089;28;20406;-26
2023/04/04 10:13:51;;;;;;;42.28;23.27;;;;;;;15.09;100.00;98767.03;5068014;28;20112;-26
2023/04/04 10:16:17;;;;;;;48.72;25.88;;;;;;;15.00;100.00;98774.09;5067965;28;20106;-25
2023/04/04 10:18:43;;;;;;;38.03;19.23;;;;;;;15.26;100.00;98767.44;5068191;28;20032;-26
2023/04/04 10:21:08;;;;;;;17.50;9.75;;;;;;;15.29;100.00;98765.28;5067604;28;20024;-25
2023/04/04 10:23:34;;;;;;;13.43;9.90;;;;;;;14.86;100.00;98772.03;5067900;28;20028;-26
2023/04/04 10:26:00;;;;;;;17.13;10.27;;;;;;;15.00;100.00;98776.78;5067635;28;20037;-25
2023/04/04 10:28:27;;;;;;;19.90;11.20;;;;;;;15.36;100.00;98776.50;5067942;28;20024;-28
2023/04/04 10:31:01;;;;;;;17.40;10.55;;;;;;;15.13;100.00;98767.28;5067484;28;20426;-28
2023/04/04 10:33:50;;;;;;;22.02;12.05;;;;;;;15.45;100.00;98774.81;5067533;28;20405;-27
2023/04/04 10:36:21;;;;;;;25.73;17.15;;;;;;;15.91;100.00;98769.00;5067489;28;20056;-28
2023/04/04 10:38:57;;;;;;;18.40;12.05;;;;;;;15.54;100.00;98759.66;5067413;28;20081;-28
2023/04/04 10:41:26;;;;;;;29.02;18.48;;;;;;;16.16;100.00;98756.34;5060463;28;20051;-28
2023/04/04 10:43:55;;;;;;;16.90;12.82;;;;;;;16.91;100.00;98760.22;5049350;28;20413;-25
2023/04/04 10:46:29;;;;;;;20.63;14.48;;;;;;;17.41;92.70;98773.97;5047381;28;20029;-25
2023/04/04 10:48:56;;;;;;;22.08;15.20;;;;;;;18.04;91.96;98778.78;5047627;28;20055;-25
2023/04/04 10:51:22;;;;;;;16.63;10.05;;;;;;;17.57;91.48;98744.84;5047117;28;20037;-25
2023/04/04 10:53:48;;;;;;;24.17;18.02;;;;;;;16.96;90.06;98768.22;5047125;28;20133;-27
2023/04/04 10:56:15;;;;;;;19.15;11.95;;;;;;;16.73;93.93;98770.66;5047127;28;20059;-27
2023/04/04 10:58:41;;;;;;;22.95;16.63;;;;;;;16.90;92.26;98766.69;5047413;28;20024;-27
2023/04/04 11:01:07;;;;;;;18.17;10.80;;;;;;;16.67;95.94;98767.25;5047067;28;20148;-27
2023/04/04 11:04:11;;;;;;;19.83;9.75;;;;;;;17.00;93.91;98769.22;5045279;28;20143;-28
2023/04/04 11:07:14;;;;;;;21.48;12.07;;;;;;;17.12;90.72;98776.84;5045365;28;20033;-27
2023/04/04 11:09:51;;;;;;;17.00;10.25;;;;;;;16.70;92.77;98775.84;5046084;28;20531;-27
2023/04/04 11:12:30;;;;;;;15.45;9.30;;;;;;;16.35;93.51;98775.22;5046583;28;20028;-27
2023/04/04 11:15:02;;;;;;;16.23;8.63;;;;;;;16.46;97.98;98774.78;5046146;28;20025;-28
2023/04/04 11:17:59;;;;;;;29.20;17.38;;;;;;;16.63;91.77;98749.28;5046460;28;20040;-27
2023/04/04 11:20:33;;;;;;;18.23;9.75;;;;;;;16.70;93.21;98757.81;5064597;28;20028;-27
2023/04/04 11:23:04;;;;;;;17.92;10.20;;;;;;;16.75;93.03;98754.22;5066514;28;20033;-27
2023/04/04 11:25:33;;;;;;;33.88;29.60;;;;;;;16.20;96.73;98735.84;5066290;28;20048;-28
2023/04/04 11:28:04;;;;;;;15.15;11.43;;;;;;;16.11;96.92;98759.91;5066819;28;20028;-27
2023/04/04 11:30:30;;;;;;;15.05;9.68;;;;;;;16.11;99.29;98759.91;5066517;28;20108;-27
2023/04/04 11:32:58;;;;;;;13.25;9.82;;;;;;;16.14;95.63;98756.66;5066558;28;20025;-28
2023/04/04 11:35:23;;;;;;;18.42;11.85;;;;;;;16.21;99.29;98761.69;5066689;28;20024;-27
2023/04/04 11:37:55;;;;;;;15.93;8.15;;;;;;;15.93;95.17;98753.38;5066353;28;20043;-27
2023/04/04 11:40:33;;;;;;;19.13;9.68;;;;;;;15.77;95.57;98760.84;5065851;28;20028;-27
2023/04/04 11:43:02;;;;;;;12.35;8.07;;;;;;;15.55;97.24;98753.22;5066249;28;20032;-27
2023/04/04 11:45:29;;;;;;;14.20;8.63;;;;;;;15.49;98.41;98754.34;5066313;28;20029;-27
2023/04/04 11:47:57;;;;;;;14.10;9.95;;;;;;;15.34;100.00;98735.69;5066244;28;20068;-27
2023/04/04 11:50:22;;;;;;;12.75;8.80;;;;;;;15.31;100.00;98752.38;5066108;28;20446;-27
2023/04/04 11:52:49;;;;;;;15.20;10.07;;;;;;;15.05;100.00;98726.53;5066281;28;20033;-27
2023/04/04 11:55:16;;;;;;;13.18;10.75;;;;;;;15.58;99.24;98749.97;5048371;28;20442;-28
2023/04/04 11:57:42;;;;;;;18.25;10.30;;;;;;;15.62;96.18;98750.19;5066283;28;20043;-28
2023/04/04 12:00:11;;;;;;;21.75;18.30;;;;;;;15.48;98.19;98763.50;5066405;28;20463;-28
2023/04/04 12:02:38;;;;;;;;;;;;;;;15.45;97.54;98759.50;5066901;28;20043;-28
2023/04/04 12:05:05;;;;;;;22.42;17.02;;;;;;;15.75;98.23;98751.44;5065972;28;19965;-28
2023/04/04 12:07:34;;;;;;;14.13;9.75;;;;;;;15.78;98.24;98750.88;5066103;28;20090;-27
2023/04/04 12:09:59;;;;;;;;;;;;;;;15.60;99.67;98761.22;5066362;28;20553;-28
2023/04/04 12:12:27;;;;;;;13.38;10.18;;;;;;;15.54;100.00;98751.59;5066312;28;20002;-27
2023/04/04 12:14:53;;;;;;;17.58;12.02;;;;;;;15.50;100.00;98739.81;5066378;28;20036;-27
2023/04/04 12:17:18;;;;;;;21.30;15.32;;;;;;;15.64;100.00;98743.44;5065918;28;20038;-27
2023/04/04 12:19:44;;;;;;;31.83;25.05;;;;;;;15.38;100.00;98734.03;5065998;28;20032;-27
2023/04/04 12:22:09;;;;;;;24.10;17.75;;;;;;;15.38;100.00;98734.03;5066118;28;20491;-27
2023/04/04 12:24:35;;;;;;;24.55;16.27;;;;;;;15.27;100.00;98736.81;5065993;28;20033;-27
2023/04/04 12:27:02;;;;;;;17.77;12.43;;;;;;;15.09;100.00;98732.13;5065661;28;20056;-27
2023/04/04 12:29:34;;;;;;;21.00;17.52;;;;;;;15.35;100.00;98737.28;5065997;28;20032;-27
2023/04/04 12:32:01;;;;;;;20.15;14.55;;;;;;;15.39;100.00;98735.66;5065869;28;20083;-27
2023/04/04 12:34:32;;;;;;;26.17;23.60;;;;;;;15.48;100.00;98745.47;5065957;28;20029;-27
2023/04/04 12:36:59;;;;;;;19.55;16.08;;;;;;;15.42;100.00;98743.13;5065699;28;20024;-28
2023/04/04 12:39:27;;;;;;;42.63;36.93;;;;;;;15.53;100.00;98739.28;5065715;28;20025;-28
2023/04/04 12:41:58;;;;;;;21.25;18.70;;;;;;;15.56;100.00;98743.28;5065852;28;20123;-27
2023/04/04 12:44:32;;;;;;;15.82;12.80;;;;;;;15.41;100.00;98738.84;5065831;28;20120;-27
2023/04/04 12:46:59;;;;;;;19.52;12.43;;;;;;;15.39;100.00;98739.13;5065917;28;20028;-27
2023/04/04 12:49:47;;;;;;;14.70;11.07;;;;;;;15.02;100.00;98718.25;5065741;28;20036;-28
2023/04/04 12:52:18;;;;;;;15.73;10.60;;;;;;;14.81;100.00;98723.78;5065641;28;20028;-27
2023/04/04 12:54:45;;;;;;;18.85;15.60;;;;;;;15.00;100.00;98734.63;5065811;28;20021;-27
2023/04/04 12:57:13;;;;;;;14.23;9.50;;;;;;;14.83;100.00;98737.72;5065599;28;20037;-27
2023/04/04 12:59:43;;;;;;;12.00;8.98;;;;;;;14.78;100.00;98750.34;5065535;28;20024;-28
2023/04/04 13:02:12;;;;;;;13.63;10.43;;;;;;;14.67;100.00;98749.63;5065499;28;20033;-27
2023/04/04 13:04:39;;;;;;;18.90;11.48;;;;;;;14.79;100.00;98752.78;5069391;28;20027;-27
2023/04/04 13:07:18;;;;;;;13.40;9.35;;;;;;;14.35;100.00;98764.25;5069144;28;20035;-27
2023/04/04 13:09:52;;;;;;;14.43;11.23;;;;;;;14.38;100.00;98739.53;5069331;28;20036;-27
2023/04/04 13:12:17;;;;;;;13.13;9.23;;;;;;;14.46;100.00;98754.25;5069681;28;20454;-28
2023/04/04 13:15:03;;;;;;;15.68;10.85;;;;;;;14.67;100.00;98755.00;5069887;28;20496;-27
2023/04/04 13:17:43;;;;;;;26.15;18.52;;;;;;;14.66;100.00;98772.16;5070139;28;20102;-27
2023/04/04 13:20:09;;;;;;;16.38;11.75;;;;;;;14.41;100.00;98760.47;5069743;28;20017;-27
2023/04/04 13:22:36;;;;;;;31.67;21.92;;;;;;;14.62;100.00;98763.06;5070004;28;20075;-27
2023/04/04 13:25:03;;;;;;;21.05;14.77;;;;;;;14.86;100.00;98758.59;5069574;28;20514;-26
2023/04/04 13:27:28;;;;;;;29.05;21.48;;;;;;;14.85;100.00;98759.72;5069734;28;20820;-27
2023/04/04 13:29:53;;;;;;;63.38;53.53;;;;;;;14.78;100.00;98756.50;5069595;28;20170;-28
2023/04/04 13:32:19;;;;;;;42.72;32.72;;;;;;;14.73;100.00;98759.25;5069875;28;20025;-27
2023/04/04 13:34:44;;;;;;;86.80;56.97;;;;;;;14.63;100.00;98765.47;5069396;28;20437;-28
2023/04/04 13:37:09;;;;;;;32.60;21.50;;;;;;;14.54;100.00;98767.09;5069675;28;20063;-27
2023/04/04 13:39:35;;;;;;;87.55;66.18;;;;;;;14.53;100.00;98772.75;5069479;28;20398;-28
2023/04/04 13:42:01;;;;;;;140.43;66.57;;;;;;;14.46;100.00;98779.22;5069625;28;20024;-28
2023/04/04 13:44:26;;;;;;;117.47;53.05;;;;;;;14.53;100.00;98767.38;5068216;28;20021;-28
2023/04/04 13:46:51;;;;;;;81.72;41.72;;;;;;;14.40;100.00;98769.56;5061053;28;20033;-28
2023/04/04 13:49:17;;;;;;;63.05;39.08;;;;;;;14.41;100.00;98775.75;5049211;28;20090;-28
2023/04/04 13:51:42;;;;;;;302.55;122.28;;;;;;;14.51;100.00;98772.22;5059919;28;20056;-27
2023/04/04 13:54:08;;;;;;;18.98;14.77;;;;;;;14.47;100.00;98782.69;5068138;28;20031;-27
2023/04/04 13:56:33;;;;;;;19.92;13.05;;;;;;;14.37;100.00;98775.50;5068832;28;20450;-28
2023/04/04 13:58:59;;;;;;;17.08;13.32;;;;;;;14.25;100.00;98786.53;5068521;28;20036;-28
2023/04/04 14:01:25;;;;;;;17.30;11.73;;;;;;;14.16;100.00;98776.63;5068484;28;20027;-28
2023/04/04 14:03:50;;;;;;;17.08;12.05;;;;;;;14.20;100.00;98780.38;5068062;28;20036;-28
2023/04/04 14:06:15;;;;;;;29.38;21.27;;;;;;;14.05;100.00;98786.59;5069076;28;20020;-28
2023/04/04 14:08:41;;;;;;;20.83;15.63;;;;;;;13.95;100.00;98787.44;5068845;28;20032;-28
2023/04/04 14:11:06;;;;;;;17.83;14.23;;;;;;;13.94;100.00;98791.19;5069188;28;20523;-27
2023/04/04 14:13:32;;;;;;;21.70;14.98;;;;;;;13.80;100.00;98799.00;5068745;28;20064;-28
2023/04/04 14:15:57;;;;;;;18.33;13.95;;;;;;;13.79;100.00;98807.28;5068354;28;20040;-28
2023/04/04 14:18:23;;;;;;;22.88;14.70;;;;;;;13.80;100.00;98817.75;5068804;28;20031;-28
2023/04/04 14:20:48;;;;;;;15.40;11.40;;;;;;;13.90;100.00;98826.84;5068953;28;20024;-27
2023/04/04 14:23:13;;;;;;;15.25;10.88;;;;;;;13.88;100.00;98829.81;5068574;28;20032;-29
2023/04/04 14:25:39;;;;;;;14.77;10.18;;;;;;;13.78;100.00;98830.63;5068428;28;20140;-26
2023/04/04 14:28:06;;;;;;;16.27;11.15;;;;;;;13.75;100.00;98846.41;5068221;28;20033;-26
2023/04/04 14:30:31;;;;;;;16.63;12.38;;;;;;;13.85;100.00;98860.63;5068295;28;20085;-26
2023/04/04 14:32:56;;;;;;;15.07;9.15;;;;;;;13.04;100.00;98869.38;5068631;28;20029;-26
2023/04/04 14:35:22;;;;;;;8.07;4.05;;;;;;;11.98;100.00;98864.09;5068194;28;20029;-26
2023/04/04 14:37:48;;;;;;;6.15;3.47;;;;;;;11.24;100.00;98897.66;5068728;28;20613;-26
2023/04/04 14:40:14;;;;;;;9.20;4.20;;;;;;;11.04;100.00;98870.75;5068830;28;20025;-25
2023/04/04 14:42:39;;;;;;;10.55;4.47;;;;;;;11.02;100.00;98884.34;5068334;28;20455;-25
2023/04/04 14:45:06;;;;;;;7.45;3.90;;;;;;;10.98;100.00;98885.88;5068059;28;20024;-25
2023/04/04 14:47:35;;;;;;;7.75;4.05;;;;;;;11.06;100.00;98895.31;5067863;28;20034;-26
2023/04/04 14:50:00;;;;;;;6.80;3.50;;;;;;;10.50;100.00;98898.13;5068005;28;20025;-26
2023/04/04 14:52:28;;;;;;;8.73;4.50;;;;;;;10.42;100.00;98893.19;5068367;28;20093;-25
2023/04/04 14:54:55;;;;;;;8.38;4.65;;;;;;;10.40;100.00;98898.81;5067963;28;20558;-25
2023/04/04 14:57:21;;;;;;;7.68;3.75;;;;;;;10.25;100.00;98894.03;5068170;28;20079;-26
2023/04/04 14:59:46;;;;;;;7.03;3.47;;;;;;;10.37;100.00;98909.94;5068185;28;20032;-26
2023/04/04 15:02:12;;;;;;;6.75;3.83;;;;;;;10.30;100.00;98913.81;5067864;28;20097;-27
2023/04/04 15:04:37;;;;;;;21.30;12.98;;;;;;;10.34;100.00;98913.13;5067716;28;20028;-27
2023/04/04 15:07:03;;;;;;;27.58;11.45;;;;;;;10.30;100.00;98914.66;5067481;28;20036;-27
2023/04/04 15:09:31;;;;;;;15.90;6.95;;;;;;;10.42;100.00;98918.03;5067961;28;20025;-27
2023/04/04 15:11:57;;;;;;;19.90;10.77;;;;;;;10.58;100.00;98910.22;5067959;28;20032;-26
2023/04/04 15:14:23;;;;;;;8.90;4.85;;;;;;;10.42;100.00;98927.84;5067975;28;20078;-26
2023/04/04 15:16:48;;;;;;;7.88;4.78;;;;;;;10.23;100.00;98929.97;5067805;28;20416;-26
2023/04/04 15:19:14;;;;;;;9.77;4.70;;;;;;;10.26;100.00;98940.16;5067807;28;20024;-26
2023/04/04 15:21:40;;;;;;;8.82;4.88;;;;;;;10.17;100.00;98933.59;5067750;28;20478;-27
2023/04/04 15:24:05;;;;;;;13.70;7.75;;;;;;;10.03;100.00;98938.44;5067582;28;20051;-26
2023/04/04 15:26:31;;;;;;;6.40;4.03;;;;;;;10.23;100.00;98945.94;5067344;28;20048;-26
2023/04/04 15:28:56;;;;;;;6.05;3.53;;;;;;;10.10;100.00;98940.97;5067559;28;20099;-26
2023/04/04 15:31:22;;;;;;;4.28;2.53;;;;;;;10.06;100.00;98928.13;5067587;28;20025;-26
2023/04/04 15:33:47;;;;;;;3.63;2.17;;;;;;;9.85;100.00;98935.00;5067687;28;20032;-27
2023/04/04 15:36:13;;;;;;;6.15;2.83;;;;;;;9.77;100.00;98937.25;5067750;28;20028;-26
2023/04/04 15:38:39;;;;;;;4.68;2.78;;;;;;;9.65;100.00;98935.44;5067693;28;20016;-27
2023/04/04 15:41:07;;;;;;;4.72;2.53;;;;;;;9.55;100.00;98924.63;5067355;28;20393;-26
2023/04/04 15:43:33;;;;;;;;;;;;;;;9.65;100.00;98935.44;5068136;28;20044;-26
2023/04/04 15:45:58;;;;;;;3.25;2.15;;;;;;;9.56;100.00;98931.59;5067143;28;20408;-26
2023/04/04 15:48:23;;;;;;;5.35;3.08;;;;;;;9.46;100.00;98936.72;5067639;28;20589;-26
2023/04/04 15:50:49;;;;;;;4.30;2.53;;;;;;;9.44;100.00;98944.16;5067388;28;20031;-26
2023/04/04 15:53:16;;;;;;;4.53;2.65;;;;;;;9.41;100.00;98934.75;5067446;28;20020;-26
2023/04/04 15:55:43;;;;;;;5.85;3.03;;;;;;;9.40;100.00;98935.03;5067393;28;20495;-26
2023/04/04 15:58:09;;;;;;;5.80;3.47;;;;;;;9.43;100.00;98959.28;5067453;28;20503;-27
2023/04/04 16:00:34;;;;;;;4.70;2.40;;;;;;;9.43;100.00;98955.81;5067256;28;20046;-26
2023/04/04 16:03:00;;;;;;;5.68;2.80;;;;;;;9.31;100.00;98958.53;5067483;28;20024;-25
2023/04/04 16:05:27;;;;;;;9.35;4.50;;;;;;;9.21;100.00;98967.16;5067224;28;20059;-26
2023/04/04 16:07:52;;;;;;;5.45;2.80;;;;;;;9.21;100.00;98966.31;5049402;28;20060;-26
2023/04/04 16:10:18;;;;;;;5.13;2.33;;;;;;;9.27;100.00;98970.69;5067218;28;20031;-26
2023/04/04 16:12:43;;;;;;;5.13;2.95;;;;;;;9.32;100.00;98983.28;5067141;28;20021;-26
2023/04/04 16:15:10;;;;;;;4.28;2.50;;;;;;;9.11;100.00;98982.88;5066945;28;20021;-27
2023/04/04 16:17:36;;;;;;;4.53;2.22;;;;;;;9.11;100.00;98971.44;5066857;28;20231;-27
2023/04/04 16:20:04;;;;;;;4.50;2.63;;;;;;;9.10;100.00;98991.91;5067261;28;20028;-26
2023/04/04 16:22:29;;;;;;;3.53;2.25;;;;;;;8.97;100.00;98995.66;5067231;28;20035;-26
2023/04/04 16:24:55;;;;;;;5.40;3.08;;;;;;;9.00;100.00;99002.34;5067025;28;20025;-26
2023/04/04 16:27:20;;;;;;;4.95;2.85;;;;;;;8.89;100.00;98989.88;5066960;28;20498;-26
2023/04/04 16:29:46;;;;;;;5.55;2.70;;;;;;;8.74;100.00;98993.81;5067136;28;20412;-26
2023/04/04 16:32:11;;;;;;;6.68;2.67;;;;;;;8.74;100.00;98996.47;5066840;28;20020;-27
2023/04/04 16:34:37;;;;;;;6.68;3.58;;;;;;;8.64;100.00;98994.41;5066050;28;20078;-26
2023/04/04 16:37:03;;;;;;;8.00;4.88;;;;;;;8.87;100.00;98997.25;5066116;28;20042;-26
2023/04/04 16:39:28;;;;;;;9.20;4.72;;;;;;;8.68;100.00;98992.09;5069401;28;20419;-27
2023/04/04 16:41:53;;;;;;;9.80;6.18;;;;;;;8.63;100.00;99002.63;5069630;28;20103;-26
2023/04/04 16:44:19;;;;;;;9.20;5.50;;;;;;;8.58;100.00;98999.84;5069761;28;20415;-27
2023/04/04 16:46:46;;;;;;;9.68;5.47;;;;;;;8.73;100.00;99005.50;5069310;28;20381;-24
2023/04/04 16:49:11;;;;;;;37.78;20.77;;;;;;;8.92;100.00;99005.38;5069703;28;20025;-26
2023/04/04 16:51:36;;;;;;;66.55;31.83;;;;;;;9.10;100.00;99013.19;5069417;28;20020;-26
2023/04/04 16:54:02;;;;;;;11.63;7.50;;;;;;;8.73;100.00;99007.34;5069557;28;20060;-26
2023/04/04 16:56:27;;;;;;;11.00;7.22;;;;;;;8.58;100.00;99019.28;5069376;28;20063;-26
2023/04/04 16:58:53;;;;;;;8.73;5.35;;;;;;;8.57;100.00;99022.16;5069084;28;20021;-26
2023/04/04 17:01:21;;;;;;;10.93;7.10;;;;;;;8.54;100.00;99025.25;5069539;28;20032;-29
2023/04/04 17:03:49;;;;;;;5.13;3.40;;;;;;;8.40;100.00;99035.28;5069348;28;20182;-26
2023/04/04 17:06:15;;;;;;;6.95;3.60;;;;;;;8.42;100.00;99027.94;5069282;28;20112;-26
2023/04/04 17:08:41;;;;;;;7.68;4.50;;;;;;;8.49;100.00;99038.44;5069430;28;20119;-28
2023/04/04 17:11:08;;;;;;;6.72;4.25;;;;;;;8.49;100.00;99033.13;5069113;28;20021;-27
2023/04/04 17:13:34;;;;;;;8.57;5.72;;;;;;;8.56;100.00;99049.75;5069146;28;20024;-26
2023/04/04 17:16:01;;;;;;;8.73;4.68;;;;;;;8.51;100.00;99045.13;5068999;28;20025;-25
2023/04/04 17:18:26;;;;;;;5.50;3.63;;;;;;;8.49;100.00;99044.56;5069113;28;20107;-26
2023/04/04 17:20:52;;;;;;;5.63;3.42;;;;;;;8.58;100.00;99061.78;5069081;28;20113;-26
2023/04/04 17:23:17;;;;;;;7.07;4.22;;;;;;;8.26;100.00;99045.31;5069243;28;20031;-26
2023/04/04 17:25:42;;;;;;;5.70;3.65;;;;;;;8.26;100.00;99050.63;5068648;28;20439;-26
2023/04/04 17:28:08;;;;;;;6.43;3.83;;;;;;;8.29;100.00;99065.28;5068594;28;20862;-26
2023/04/04 17:30:33;;;;;;;7.72;5.13;;;;;;;8.32;100.00;99057.69;5068794;28;20409;-26
2023/04/04 17:32:59;;;;;;;6.32;3.97;;;;;;;8.25;100.00;99078.22;5069165;28;20029;-26
2023/04/04 17:35:24;;;;;;;5.50;3.40;;;;;;;8.07;100.00;99079.13;5068591;28;20029;-26
2023/04/04 17:37:50;;;;;;;6.00;3.80;;;;;;;7.86;100.00;99075.09;5068265;28;20089;-26
2023/04/04 17:40:16;;;;;;;6.25;4.00;;;;;;;8.07;100.00;99094.22;5068586;28;20115;-26
2023/04/04 17:42:41;;;;;;;9.48;6.00;;;;;;;7.92;100.00;99095.44;5068532;28;20033;-26
2023/04/04 17:45:07;;;;;;;8.05;5.13;;;;;;;7.98;100.00;99101.69;5068327;28;20029;-26
2023/04/04 17:47:33;;;;;;;14.27;10.18;;;;;;;8.09;100.00;99100.09;5068531;28;20037;-26
2023/04/04 17:49:58;;;;;;;9.88;6.78;;;;;;;7.95;100.00;99120.75;5068437;28;20025;-26
2023/04/04 17:52:24;;;;;;;8.75;5.32;;;;;;;7.83;100.00;99108.22;5068636;28;20028;-26
2023/04/04 17:54:52;;;;;;;9.80;7.00;;;;;;;7.81;100.00;99122.75;5068187;28;20029;-26
2023/04/04 17:57:18;;;;;;;15.73;10.25;;;;;;;7.84;100.00;99122.28;5068010;28;20115;-26
2023/04/04 17:59:43;;;;;;;25.50;16.20;;;;;;;7.76;100.00;99125.25;5068383;28;20064;-28
2023/04/04 18:02:09;;;;;;;20.35;13.35;;;;;;;7.64;100.00;99127.84;5068313;28;20017;-26
2023/04/04 18:04:36;;;;;;;8.10;4.82;;;;;;;7.49;100.00;99122.91;5068406;28;20040;-26
2023/04/04 18:07:02;;;;;;;19.13;12.23;;;;;;;7.59;100.00;99125.84;5067891;28;20028;-26
2023/04/04 18:09:27;;;;;;;20.83;13.05;;;;;;;7.77;100.00;99142.81;5068315;28;20025;-26
2023/04/04 18:11:53;;;;;;;24.50;14.52;;;;;;;7.65;100.00;99132.13;5068169;28;20029;-27
2023/04/04 18:14:18;;;;;;;13.52;8.73;;;;;;;7.78;100.00;99133.81;5068261;28;20035;-26
2023/04/04 18:16:44;;;;;;;59.13;24.88;;;;;;;7.75;100.00;99139.56;5067816;28;20025;-26
2023/04/04 18:19:09;;;;;;;47.97;23.15;;;;;;;7.60;100.00;99137.28;5067877;28;20074;-26
2023/04/04 18:21:36;;;;;;;77.60;36.67;;;;;;;7.62;100.00;99144.00;5067977;28;20474;-26
2023/04/04 18:24:01;;;;;;;23.10;12.15;;;;;;;7.83;100.00;99148.03;5067682;28;20037;-26
2023/04/04 18:26:27;;;;;;;30.33;17.90;;;;;;;7.79;100.00;99151.38;5067211;28;20040;-26
2023/04/04 18:28:52;;;;;;;18.50;10.73;;;;;;;7.65;100.00;99140.88;5067649;28;20067;-26
2023/04/04 18:31:17;;;;;;;17.02;12.07;;;;;;;7.57;100.00;99149.16;5067483;28;20085;-26
2023/04/04 18:33:43;;;;;;;10.00;7.47;;;;;;;7.53;100.00;99147.97;5067611;28;20836;-26
2023/04/04 18:36:08;;;;;;;12.27;8.40;;;;;;;7.50;100.00;99151.09;5067309;28;20058;-26
2023/04/04 18:38:34;;;;;;;8.30;6.05;;;;;;;7.43;100.00;99151.13;5067786;28;20021;-26
2023/04/04 18:40:59;;;;;;;10.25;7.43;;;;;;;7.59;100.00;99151.59;5067394;28;20043;-26
2023/04/04 18:43:25;;;;;;;7.60;6.18;;;;;;;7.49;100.00;99144.13;5067626;28;20020;-26